»·PEaware :: N7137Y KAPV-L71

N7137Y :: KAPV-L71

FLIGHT INFORMATION

Flight Status: Arrived
Operator: Privately registered:
United States
More flights under this callsign
Pilot: Christian U. (16550)
Aircraft: PIPER PA-28R-201 ARROW
(P28R)
More flights by this aircraft type
Origin: KAPV Apple Valley
United States
Destination: L71 California City Mun
United States
More flights between these airports :: More routes between these airports
Route:
File this flight plan on PilotEdge
Remarks:
Altitude:
(Current/Filed)
6,500ft
Speed:
(Current/Filed)
130kts
Departed: 26-May-18 08:15 AM
Arrived: 26-May-18 09:06 AM
Distance/Time
Traveled:
53nm/0:51
Distance/Time
To Go:
Arrived

Flight Plot

Page will automatically refresh every two minutes.

Flight plan parsing failed; only flown route is shown


Map Options




Map Legend


Flown Route
Filed Route
Departure Airport
Arrival Airport
Navaid (VOR, NDB)
Fix

Horizontal Profiles

Position Reports

Time Latitude Longitude Heading Altitude Ground
Speed
26-May-18 08:07 34.571926 -117.189362 195 3064ft 9kts
26-May-18 08:08 34.570212 -117.188433 88 3064ft 12kts
26-May-18 08:09 34.570221 -117.183246 89 3064ft 15kts
26-May-18 08:10 34.570163 -117.180531 193 3064ft 0kts
26-May-18 08:11 34.570163 -117.180531 193 3064ft 0kts
26-May-18 08:12 34.570163 -117.180531 193 3064ft 0kts
26-May-18 08:13 34.570163 -117.180531 193 3064ft 0kts
26-May-18 08:14 34.569728 -117.180464 183 3064ft 6kts
26-May-18 08:15 34.570835 -117.196798 272 3615ft 68kts
26-May-18 08:16 34.581719 -117.215943 306 4552ft 78kts
26-May-18 08:17 34.595881 -117.233447 302 5419ft 67kts
26-May-18 08:18 34.609996 -117.250831 309 5996ft 72kts
26-May-18 08:19 34.624986 -117.266389 263 6619ft 59kts
26-May-18 08:20 34.630158 -117.296552 270 6818ft 98kts
26-May-18 08:21 34.644320 -117.326397 276 6911ft 114kts
26-May-18 08:22 34.646470 -117.367317 270 6569ft 118kts
26-May-18 08:23 34.647577 -117.405906 270 6558ft 112kts
26-May-18 08:24 34.648549 -117.443275 270 6558ft 109kts
26-May-18 08:25 34.649457 -117.477734 270 6558ft 109kts
26-May-18 08:26 34.650366 -117.512019 270 6558ft 109kts
26-May-18 08:27 34.651353 -117.548945 270 6558ft 109kts
26-May-18 08:28 34.652345 -117.585832 270 6557ft 109kts
26-May-18 08:29 34.653325 -117.622608 270 6555ft 109kts
26-May-18 08:30 34.654198 -117.659048 270 6554ft 108kts
26-May-18 08:31 34.654923 -117.695550 270 6550ft 107kts
26-May-18 08:32 34.655494 -117.731675 269 6546ft 106kts
26-May-18 08:33 34.655906 -117.767432 270 6540ft 105kts
26-May-18 08:34 34.656023 -117.802681 269 6537ft 104kts
26-May-18 08:35 34.656028 -117.837646 269 6532ft 103kts
26-May-18 08:36 34.655868 -117.872195 269 6535ft 102kts
26-May-18 08:37 34.655503 -117.906692 269 6541ft 102kts
26-May-18 08:38 34.655002 -117.941331 270 6495ft 104kts
26-May-18 08:39 34.654391 -117.976050 269 6500ft 102kts
26-May-18 08:40 34.653508 -118.009580 270 6501ft 101kts
26-May-18 08:41 34.652385 -118.043725 270 6509ft 101kts
26-May-18 08:42 34.665507 -118.073116 301 6511ft 102kts
26-May-18 08:43 34.682529 -118.100872 301 6513ft 102kts
26-May-18 08:44 34.699545 -118.128612 301 6513ft 102kts
26-May-18 08:45 34.715889 -118.155349 301 6512ft 103kts
26-May-18 08:46 34.732888 -118.183312 302 6510ft 103kts
26-May-18 08:47 34.759951 -118.191693 359 6505ft 123kts
26-May-18 08:48 34.793470 -118.185053 356 6497ft 121kts
26-May-18 08:49 34.826640 -118.179972 355 6488ft 120kts
26-May-18 08:50 34.859500 -118.176964 352 6480ft 118kts
26-May-18 08:51 34.892003 -118.174360 352 6474ft 116kts
26-May-18 08:52 34.923893 -118.172413 352 6476ft 113kts
26-May-18 08:53 34.955049 -118.171428 353 6479ft 111kts
26-May-18 08:54 34.985928 -118.171504 353 6486ft 110kts
26-May-18 08:55 35.016387 -118.172450 353 6483ft 109kts
26-May-18 08:56 35.046076 -118.168104 24 6488ft 116kts
26-May-18 08:57 35.074927 -118.145645 25 6080ft 128kts
26-May-18 08:58 35.104883 -118.122212 25 5466ft 129kts
26-May-18 08:59 35.134648 -118.098197 24 4885ft 123kts
26-May-18 09:00 35.162476 -118.075058 21 4254ft 121kts
26-May-18 09:01 35.190675 -118.055937 17 3517ft 103kts
26-May-18 09:02 35.206926 -118.051449 244 3258ft 115kts
26-May-18 09:03 35.183355 -118.033895 138 3215ft 125kts
26-May-18 09:04 35.159930 -118.006959 141 2637ft 103kts
26-May-18 09:05 35.150910 -118.015938 258 2473ft 45kts
26-May-18 09:06 35.149336 -118.025558 252 2448ft 10kts
26-May-18 09:07 35.148602 -118.026014 145 2449ft 7kts
26-May-18 09:08 35.150131 -118.018649 76 2433ft 20kts
26-May-18 09:09 35.149813 -118.015933 165 2425ft 0kts

Navigation Log

Ident Type
Flight plan parsing failed, navigation log unavailable